createdAt,value
2017-10-19T00:00:53.817Z,1.70
2017-10-19T00:03:20.014Z,1.90
2017-10-19T00:05:46.627Z,2.13
2017-10-19T00:08:12.889Z,2.10
2017-10-19T00:10:39.098Z,1.90
2017-10-19T00:13:05.446Z,1.83
2017-10-19T00:15:31.883Z,2.47
2017-10-19T00:17:58.297Z,2.00
2017-10-19T00:20:24.630Z,2.07
2017-10-19T00:22:51.056Z,1.80
2017-10-19T00:25:17.263Z,2.13
2017-10-19T00:27:43.833Z,2.47
2017-10-19T00:30:10.290Z,1.90
2017-10-19T00:32:36.721Z,2.20
2017-10-19T00:35:02.982Z,1.77
2017-10-19T00:37:29.417Z,2.13
2017-10-19T00:39:55.593Z,1.93
2017-10-19T00:42:22.012Z,2.00
2017-10-19T00:44:48.211Z,2.20
2017-10-19T00:47:14.412Z,2.10
2017-10-19T00:49:40.892Z,2.37
2017-10-19T00:52:07.091Z,1.93
2017-10-19T00:54:33.304Z,2.13
2017-10-19T00:56:59.555Z,1.87
2017-10-19T00:59:25.765Z,2.10
2017-10-19T01:01:52.086Z,2.00
2017-10-19T01:04:18.314Z,2.00
2017-10-19T01:06:44.517Z,2.20
2017-10-19T01:09:11.116Z,1.80
2017-10-19T01:11:37.321Z,2.40
2017-10-19T01:14:03.527Z,2.10
2017-10-19T01:16:30.206Z,2.30
2017-10-19T01:18:56.645Z,2.30
2017-10-19T01:21:22.850Z,1.70
2017-10-19T01:23:49.357Z,2.23
2017-10-19T01:26:15.553Z,1.77
2017-10-19T01:28:41.754Z,2.00
2017-10-19T01:31:08.304Z,2.47
2017-10-19T01:33:34.555Z,1.80
2017-10-19T01:36:00.792Z,2.03
2017-10-19T01:38:27.313Z,1.60
2017-10-19T01:40:53.765Z,2.20
2017-10-19T01:43:20.138Z,1.90
2017-10-19T01:45:46.388Z,1.90
2017-10-19T01:48:12.620Z,2.10
2017-10-19T01:50:39.298Z,2.23
2017-10-19T01:53:05.496Z,1.90
2017-10-19T01:55:31.958Z,1.70
2017-10-19T01:57:58.600Z,2.30
2017-10-19T02:00:24.890Z,1.60
2017-10-19T02:02:51.332Z,2.20
2017-10-19T02:05:17.601Z,2.00
2017-10-19T02:07:43.809Z,2.30
2017-10-19T02:10:10.009Z,1.73
2017-10-19T02:12:36.638Z,2.17
2017-10-19T02:15:02.868Z,2.17
2017-10-19T02:17:29.094Z,1.60
2017-10-19T02:19:55.827Z,2.00
2017-10-19T02:22:22.031Z,2.07
2017-10-19T02:24:48.335Z,1.93
2017-10-19T02:27:14.605Z,1.80
2017-10-19T02:29:41.038Z,1.80
2017-10-19T02:32:07.275Z,1.87
2017-10-19T02:34:33.527Z,2.17
2017-10-19T02:36:59.742Z,1.60
2017-10-19T02:39:25.931Z,1.90
2017-10-19T02:41:52.283Z,2.43
2017-10-19T02:44:18.491Z,2.20
2017-10-19T02:46:44.738Z,2.13
2017-10-19T02:49:11.314Z,2.30
2017-10-19T02:51:37.516Z,1.90
2017-10-19T02:54:03.954Z,1.77
2017-10-19T02:56:30.326Z,2.00
2017-10-19T02:58:56.770Z,2.33
2017-10-19T03:01:22.967Z,2.10
2017-10-19T03:03:50.243Z,2.30
2017-10-19T03:06:16.456Z,2.20
2017-10-19T03:08:42.893Z,2.10
2017-10-19T03:11:09.590Z,2.17
2017-10-19T03:13:35.800Z,2.00
2017-10-19T03:16:01.994Z,2.30
2017-10-19T03:18:28.937Z,1.87
2017-10-19T03:20:55.151Z,2.80
2017-10-19T03:23:21.704Z,2.20
2017-10-19T03:25:47.989Z,1.73
2017-10-19T03:28:14.210Z,2.00
2017-10-19T03:30:40.425Z,2.23
2017-10-19T03:33:06.973Z,2.40
2017-10-19T03:35:33.207Z,2.33
2017-10-19T03:37:59.414Z,2.20
2017-10-19T03:40:25.688Z,1.97
2017-10-19T03:42:51.905Z,2.60
2017-10-19T03:45:18.128Z,2.90
2017-10-19T03:47:44.651Z,2.40
2017-10-19T03:50:10.868Z,2.50
2017-10-19T03:52:37.306Z,2.13
2017-10-19T03:55:03.793Z,2.07
2017-10-19T03:57:30.207Z,2.10
2017-10-19T03:59:56.428Z,2.50
2017-10-19T04:02:22.681Z,2.40
2017-10-19T04:04:48.883Z,2.70
2017-10-19T04:07:15.075Z,1.83
2017-10-19T04:09:41.339Z,2.23
2017-10-19T04:12:07.538Z,2.10
2017-10-19T04:14:33.726Z,1.97
2017-10-19T04:17:00.261Z,2.03
2017-10-19T04:19:26.454Z,1.90
2017-10-19T04:21:52.917Z,2.10
2017-10-19T04:24:19.498Z,2.30
2017-10-19T04:26:45.699Z,2.67
2017-10-19T04:29:12.155Z,2.70
2017-10-19T04:31:38.707Z,2.23
2017-10-19T04:34:04.919Z,2.30
2017-10-19T04:36:31.127Z,2.03
2017-10-19T04:38:57.375Z,2.23
2017-10-19T04:41:23.575Z,2.30
2017-10-19T04:43:49.818Z,1.80
2017-10-19T04:46:16.211Z,2.27
2017-10-19T04:48:42.399Z,2.37
2017-10-19T04:51:08.850Z,2.53
2017-10-19T04:53:35.108Z,2.67
2017-10-19T04:56:01.567Z,2.50
2017-10-19T04:58:27.781Z,2.10
2017-10-19T05:00:54.358Z,2.50
2017-10-19T05:03:20.555Z,1.90
2017-10-19T05:05:47.068Z,2.03
2017-10-19T05:08:13.294Z,2.57
2017-10-19T05:10:39.557Z,2.00
2017-10-19T05:13:05.756Z,2.03
2017-10-19T05:15:31.953Z,2.10
2017-10-19T05:17:58.517Z,2.40
2017-10-19T05:20:24.722Z,2.37
2017-10-19T05:22:50.908Z,2.87
2017-10-19T05:25:17.899Z,2.33
2017-10-19T05:27:44.093Z,3.17
2017-10-19T05:30:10.626Z,2.80
2017-10-19T05:32:37.168Z,2.50
2017-10-19T05:35:03.371Z,2.60
2017-10-19T05:37:29.571Z,2.40
2017-10-19T05:39:55.848Z,2.57
2017-10-19T05:42:22.286Z,2.57
2017-10-19T05:44:48.515Z,2.50
2017-10-19T05:47:15.035Z,2.53
2017-10-19T05:49:41.239Z,2.50
2017-10-19T05:52:07.549Z,2.73
2017-10-19T05:54:34.128Z,3.63
2017-10-19T05:57:00.486Z,2.37
2017-10-19T05:59:26.668Z,2.90
2017-10-19T06:01:52.931Z,2.47
2017-10-19T06:04:19.319Z,2.90
2017-10-19T06:06:45.525Z,2.80
2017-10-19T06:09:11.927Z,2.37
2017-10-19T06:11:38.133Z,1.90
2017-10-19T06:14:04.340Z,2.27
2017-10-19T06:16:31.019Z,3.13
2017-10-19T06:18:57.217Z,3.57
2017-10-19T06:21:23.669Z,2.87
2017-10-19T06:23:50.319Z,3.33
2017-10-19T06:26:16.776Z,3.20
2017-10-19T06:28:43.338Z,4.20
2017-10-19T06:31:09.605Z,3.73
2017-10-19T06:33:35.850Z,2.70
2017-10-19T06:36:02.101Z,3.20
2017-10-19T06:38:28.708Z,3.77
2017-10-19T06:40:54.928Z,2.87
2017-10-19T06:43:21.116Z,2.23
2017-10-19T06:45:47.689Z,2.80
2017-10-19T06:48:13.899Z,2.93
2017-10-19T06:50:40.110Z,2.70
2017-10-19T06:53:06.338Z,2.50
2017-10-19T06:55:32.522Z,2.97
2017-10-19T06:57:58.901Z,3.40
2017-10-19T07:00:25.575Z,2.70
2017-10-19T07:02:51.810Z,3.60
2017-10-19T07:05:18.068Z,2.87
2017-10-19T07:07:44.617Z,3.00
2017-10-19T07:10:10.835Z,2.90
2017-10-19T07:12:37.068Z,2.50
2017-10-19T07:15:03.418Z,2.83
2017-10-19T07:17:29.658Z,2.80
2017-10-19T07:19:56.160Z,2.90
2017-10-19T07:22:22.681Z,2.47
2017-10-19T07:24:48.881Z,3.20
2017-10-19T07:27:15.081Z,2.53
2017-10-19T07:29:41.413Z,2.80
2017-10-19T07:32:07.902Z,2.43
2017-10-19T07:34:34.114Z,3.63
2017-10-19T07:37:00.400Z,2.90
2017-10-19T07:39:26.840Z,3.20
2017-10-19T07:41:53.323Z,2.80
2017-10-19T07:44:19.800Z,3.03
2017-10-19T07:46:45.997Z,2.50
2017-10-19T07:49:12.276Z,2.73
2017-10-19T07:51:38.485Z,3.43
2017-10-19T07:54:04.718Z,3.27
2017-10-19T07:56:31.398Z,2.77
2017-10-19T07:58:57.617Z,2.90
2017-10-19T08:01:24.002Z,3.13
2017-10-19T08:03:50.339Z,2.97
2017-10-19T08:06:16.533Z,3.27
2017-10-19T08:08:42.734Z,3.10
2017-10-19T08:11:09.001Z,2.40
2017-10-19T08:13:35.220Z,3.20
2017-10-19T08:16:01.418Z,3.00
2017-10-19T08:18:28.054Z,3.27
2017-10-19T08:20:54.284Z,3.03
2017-10-19T08:23:20.491Z,3.33
2017-10-19T08:25:46.737Z,2.93
2017-10-19T08:28:12.968Z,2.90
2017-10-19T08:30:39.184Z,3.10
2017-10-19T08:33:05.696Z,2.70
2017-10-19T08:35:31.930Z,2.73
2017-10-19T08:37:58.150Z,3.37
2017-10-19T08:40:24.489Z,3.20
2017-10-19T08:42:50.707Z,2.50
2017-10-19T08:45:16.920Z,3.43
2017-10-19T08:47:43.528Z,3.03
2017-10-19T08:50:09.976Z,2.80
2017-10-19T08:52:36.197Z,3.00
2017-10-19T08:55:07.680Z,3.53
2017-10-19T08:57:33.875Z,3.13
2017-10-19T09:00:00.097Z,3.50
2017-10-19T09:02:26.630Z,3.80
2017-10-19T09:04:52.849Z,3.63
2017-10-19T09:07:19.097Z,3.40
2017-10-19T09:09:45.365Z,2.80
2017-10-19T09:12:11.839Z,3.60
2017-10-19T09:14:38.300Z,3.23
2017-10-19T09:17:04.808Z,3.20
2017-10-19T09:19:30.997Z,2.50
2017-10-19T09:21:57.190Z,3.10
2017-10-19T09:24:23.529Z,3.20
2017-10-19T09:26:49.739Z,3.13
2017-10-19T09:29:15.976Z,3.40
2017-10-19T09:31:42.598Z,3.10
2017-10-19T09:34:08.800Z,3.90
2017-10-19T09:36:34.991Z,3.17
2017-10-19T09:39:01.330Z,4.53
2017-10-19T09:41:27.540Z,2.80
2017-10-19T09:43:53.833Z,3.37
2017-10-19T09:46:20.113Z,3.00
2017-10-19T09:48:46.342Z,3.13
2017-10-19T09:51:12.530Z,3.80
2017-10-19T09:53:39.002Z,3.80
2017-10-19T09:56:05.194Z,3.30
2017-10-19T09:58:31.415Z,3.57
2017-10-19T10:00:57.919Z,4.10
2017-10-19T10:03:24.290Z,3.07
2017-10-19T10:05:50.560Z,3.30
2017-10-19T10:08:17.578Z,3.40
2017-10-19T10:10:43.780Z,3.40
2017-10-19T10:13:09.979Z,3.70
2017-10-19T10:15:36.249Z,3.97
2017-10-19T10:18:02.573Z,4.10
2017-10-19T10:20:28.780Z,3.30
2017-10-19T10:22:55.061Z,4.20
2017-10-19T10:25:21.264Z,4.33
2017-10-19T10:27:47.484Z,3.87
2017-10-19T10:30:13.810Z,3.67
2017-10-19T10:32:40.015Z,3.53
2017-10-19T10:35:06.502Z,2.70
2017-10-19T10:37:32.528Z,4.23
2017-10-19T10:39:58.752Z,4.40
2017-10-19T10:42:25.248Z,6.20
2017-10-19T10:44:51.432Z,6.73
2017-10-19T10:47:17.617Z,6.63
2017-10-19T10:49:44.109Z,6.30
2017-10-19T10:52:10.541Z,8.23
2017-10-19T10:54:36.755Z,6.40
2017-10-19T10:57:03.115Z,6.03
2017-10-19T10:59:29.628Z,7.90
2017-10-19T11:01:55.905Z,6.37
2017-10-19T11:04:22.519Z,5.87
2017-10-19T11:06:48.690Z,6.00
2017-10-19T11:09:15.142Z,6.30
2017-10-19T11:11:41.374Z,7.13
2017-10-19T11:14:07.550Z,6.07
2017-10-19T11:16:33.737Z,6.07
2017-10-19T11:18:59.962Z,5.60
2017-10-19T11:21:26.389Z,5.70
2017-10-19T11:23:52.645Z,6.40
2017-10-19T11:26:18.850Z,6.10
2017-10-19T11:28:45.031Z,5.50
2017-10-19T11:31:11.569Z,6.10
2017-10-19T11:33:37.753Z,6.17
2017-10-19T11:36:03.933Z,5.77
2017-10-19T11:38:30.766Z,4.80
2017-10-19T11:40:56.953Z,6.07
2017-10-19T11:43:23.152Z,5.20
2017-10-19T11:45:49.817Z,4.60
2017-10-19T11:48:15.999Z,6.27
2017-10-19T11:50:42.191Z,5.30
2017-10-19T11:53:08.754Z,6.07
2017-10-19T11:55:34.950Z,6.97
2017-10-19T11:58:03.007Z,7.57
2017-10-19T12:00:29.914Z,5.93
2017-10-19T12:02:56.708Z,7.10
2017-10-19T12:05:22.963Z,6.07
2017-10-19T12:07:49.194Z,5.90
2017-10-19T12:10:15.645Z,6.30
2017-10-19T12:12:41.836Z,6.60
2017-10-19T12:15:08.403Z,6.27
2017-10-19T12:17:34.603Z,6.03
2017-10-19T12:20:01.491Z,6.37
2017-10-19T12:22:27.745Z,6.13
2017-10-19T12:24:53.942Z,5.83
2017-10-19T12:27:20.120Z,5.80
2017-10-19T12:29:46.462Z,6.73
2017-10-19T12:32:12.858Z,6.80
2017-10-19T12:34:39.097Z,6.80
2017-10-19T12:37:05.758Z,6.17
2017-10-19T12:39:31.947Z,6.47
2017-10-19T12:41:58.372Z,6.30
2017-10-19T12:44:24.924Z,6.17
2017-10-19T12:46:51.099Z,6.07
2017-10-19T12:49:17.292Z,7.50
2017-10-19T12:51:43.926Z,5.87
2017-10-19T12:54:10.138Z,7.13
2017-10-19T12:56:36.336Z,6.10
2017-10-19T12:59:02.923Z,6.20
2017-10-19T13:01:29.115Z,5.60
2017-10-19T13:03:55.416Z,6.70
2017-10-19T13:06:21.750Z,6.60
2017-10-19T13:08:47.970Z,5.87
2017-10-19T13:11:14.401Z,6.60
2017-10-19T13:13:40.665Z,6.50
2017-10-19T13:16:06.895Z,6.73
2017-10-19T13:18:33.614Z,6.47
2017-10-19T13:21:00.153Z,5.20
2017-10-19T13:23:26.322Z,6.33
2017-10-19T13:25:52.877Z,5.17
2017-10-19T13:28:19.090Z,6.57
2017-10-19T13:30:45.298Z,6.27
2017-10-19T13:33:11.557Z,6.50
2017-10-19T13:35:37.764Z,6.53
2017-10-19T13:38:03.944Z,6.10
2017-10-19T13:40:30.220Z,5.73
2017-10-19T13:42:56.412Z,7.33
2017-10-19T13:45:22.605Z,6.00
2017-10-19T13:47:49.169Z,5.80
2017-10-19T13:50:15.390Z,5.60
2017-10-19T13:52:41.583Z,6.10
2017-10-19T13:55:07.883Z,4.83
2017-10-19T13:57:34.075Z,5.63
2017-10-19T14:00:00.252Z,5.77
2017-10-19T14:02:26.861Z,5.70
2017-10-19T14:04:53.168Z,5.90
2017-10-19T14:07:19.352Z,4.80
2017-10-19T14:09:45.907Z,5.60
2017-10-19T14:12:12.103Z,5.13
2017-10-19T14:14:38.269Z,5.77
2017-10-19T14:17:04.961Z,4.90
2017-10-19T14:19:31.141Z,5.80
2017-10-19T14:21:57.347Z,5.37
2017-10-19T14:24:23.581Z,6.47
2017-10-19T14:26:49.980Z,5.87
2017-10-19T14:29:16.146Z,5.90
2017-10-19T14:31:42.394Z,5.40
2017-10-19T14:34:08.595Z,6.10
2017-10-19T14:36:34.778Z,5.37
2017-10-19T14:39:01.046Z,5.47
2017-10-19T14:41:27.257Z,5.57
2017-10-19T14:43:53.447Z,5.10
2017-10-19T14:46:20.010Z,5.90
2017-10-19T14:48:46.221Z,6.30
2017-10-19T14:51:12.635Z,5.40
2017-10-19T14:53:39.625Z,5.40
2017-10-19T14:56:05.806Z,5.87
2017-10-19T14:58:32.256Z,5.73
2017-10-19T15:00:58.578Z,5.47
2017-10-19T15:03:24.790Z,5.27
2017-10-19T15:05:51.202Z,5.80
2017-10-19T15:08:17.508Z,5.43
2017-10-19T15:10:43.695Z,5.53
2017-10-19T15:13:09.876Z,4.70
2017-10-19T15:15:36.541Z,4.67
2017-10-19T15:18:02.769Z,5.60
2017-10-19T15:20:29.145Z,4.87
2017-10-19T15:22:55.780Z,5.40
2017-10-19T15:25:22.054Z,5.23
2017-10-19T15:27:48.262Z,5.30
2017-10-19T15:30:14.897Z,4.67
2017-10-19T15:32:41.109Z,5.10
2017-10-19T15:35:07.311Z,5.50
2017-10-19T15:37:33.942Z,6.20
2017-10-19T15:40:00.165Z,5.33
2017-10-19T15:42:26.376Z,5.03
2017-10-19T15:44:52.885Z,5.07
2017-10-19T15:47:19.333Z,5.13
2017-10-19T15:49:45.682Z,5.40
2017-10-19T15:52:12.345Z,5.30
2017-10-19T15:54:38.923Z,4.47
2017-10-19T15:57:05.518Z,4.37
2017-10-19T15:59:32.489Z,4.53
2017-10-19T16:01:58.947Z,5.63
2017-10-19T16:04:25.585Z,5.17
2017-10-19T16:06:52.322Z,5.23
2017-10-19T16:09:18.523Z,5.90
2017-10-19T16:11:45.126Z,5.77
2017-10-19T16:14:11.382Z,4.90
2017-10-19T16:16:37.600Z,4.50
2017-10-19T16:19:03.805Z,5.37
2017-10-19T16:21:30.352Z,5.93
2017-10-19T16:23:56.586Z,5.00
2017-10-19T16:26:22.787Z,5.20
2017-10-19T16:28:49.117Z,4.73
2017-10-19T16:31:15.367Z,4.80
2017-10-19T16:33:41.838Z,6.17
2017-10-19T16:36:08.457Z,4.60
2017-10-19T16:38:34.657Z,5.17
2017-10-19T16:41:00.829Z,4.90
2017-10-19T16:43:27.641Z,4.70
2017-10-19T16:45:53.822Z,5.13
2017-10-19T16:48:20.048Z,5.60
2017-10-19T16:50:46.839Z,4.87
2017-10-19T16:53:13.046Z,5.10
2017-10-19T16:55:39.266Z,6.03
2017-10-19T16:58:05.888Z,5.10
2017-10-19T17:00:32.073Z,4.47
2017-10-19T17:02:58.322Z,6.00
2017-10-19T17:05:24.867Z,4.60
2017-10-19T17:07:51.080Z,5.40
2017-10-19T17:10:17.302Z,4.80
2017-10-19T17:12:43.734Z,5.00
2017-10-19T17:15:09.962Z,6.00
2017-10-19T17:17:36.245Z,5.40
2017-10-19T17:20:02.543Z,5.87
2017-10-19T17:22:28.744Z,5.70
2017-10-19T17:24:54.997Z,5.80
2017-10-19T17:27:21.541Z,5.73
2017-10-19T17:29:47.773Z,5.60
2017-10-19T17:32:14.016Z,6.00
2017-10-19T17:34:40.899Z,5.27
2017-10-19T17:37:07.338Z,5.80
2017-10-19T17:39:33.570Z,5.63
2017-10-19T17:41:59.909Z,5.53
2017-10-19T17:44:26.143Z,5.90
2017-10-19T17:46:52.635Z,5.70
2017-10-19T17:49:19.055Z,6.27
2017-10-19T17:51:45.654Z,4.67
2017-10-19T17:54:11.870Z,5.53
2017-10-19T17:56:38.077Z,5.80
2017-10-19T17:59:04.852Z,5.10
2017-10-19T18:01:31.072Z,5.60
2017-10-19T18:03:57.291Z,5.33
2017-10-19T18:06:23.951Z,5.80
2017-10-19T18:08:50.159Z,6.07
2017-10-19T18:11:16.635Z,6.23
2017-10-19T18:13:42.919Z,5.20
2017-10-19T18:16:09.106Z,6.63
2017-10-19T18:18:35.494Z,5.63
2017-10-19T18:21:01.720Z,6.10
2017-10-19T18:23:27.918Z,5.93
2017-10-19T18:25:54.234Z,5.80
2017-10-19T18:28:20.446Z,5.40
2017-10-19T18:30:46.664Z,5.80
2017-10-19T18:33:13.277Z,5.50
2017-10-19T18:35:39.753Z,4.93
2017-10-19T18:38:05.946Z,5.50
2017-10-19T18:40:32.517Z,6.20
2017-10-19T18:42:58.779Z,6.17
2017-10-19T18:45:24.979Z,6.33
2017-10-19T18:47:51.662Z,6.37
2017-10-19T18:50:17.843Z,5.93
2017-10-19T18:52:44.082Z,6.20
2017-10-19T18:55:10.754Z,5.87
2017-10-19T18:57:36.954Z,5.30
2017-10-19T19:00:03.388Z,5.97
2017-10-19T19:02:29.624Z,5.50
2017-10-19T19:04:55.977Z,5.60
2017-10-19T19:07:22.196Z,5.70
2017-10-19T19:09:48.418Z,5.97
2017-10-19T19:12:15.077Z,5.30
2017-10-19T19:14:41.446Z,5.43
2017-10-19T19:17:07.876Z,5.90
2017-10-19T19:19:34.131Z,5.80
2017-10-19T19:22:00.361Z,5.70
2017-10-19T19:24:26.588Z,5.87
2017-10-19T19:26:52.860Z,6.13
2017-10-19T19:29:19.283Z,5.33
2017-10-19T19:31:45.732Z,5.90
2017-10-19T19:34:12.050Z,5.73
2017-10-19T19:36:38.275Z,4.60
2017-10-19T19:39:04.864Z,6.10
2017-10-19T19:41:31.398Z,6.40
2017-10-19T19:43:57.590Z,5.40
2017-10-19T19:46:23.800Z,5.33
2017-10-19T19:48:50.134Z,6.10
2017-10-19T19:51:16.337Z,6.20
2017-10-19T19:53:42.547Z,6.13
2017-10-19T19:56:09.483Z,5.53
2017-10-19T19:58:35.697Z,5.40
2017-10-19T20:01:02.120Z,4.60
2017-10-19T20:03:28.729Z,5.27
2017-10-19T20:05:55.161Z,5.00
2017-10-19T20:08:21.367Z,5.50
2017-10-19T20:10:47.592Z,5.40
2017-10-19T20:13:14.392Z,6.00
2017-10-19T20:15:40.782Z,6.60
2017-10-19T20:18:07.227Z,5.33
2017-10-19T20:20:33.865Z,4.63
2017-10-19T20:23:00.110Z,5.40
2017-10-19T20:25:26.346Z,5.40
2017-10-19T20:27:52.949Z,5.70
2017-10-19T20:30:19.144Z,5.40
2017-10-19T20:32:45.361Z,6.23
2017-10-19T20:35:11.931Z,5.77
2017-10-19T20:37:38.123Z,5.50
2017-10-19T20:40:04.327Z,6.10
2017-10-19T20:42:30.690Z,5.80
2017-10-19T20:44:56.911Z,6.03
2017-10-19T20:47:23.162Z,5.97
2017-10-19T20:49:49.935Z,6.40
2017-10-19T20:52:16.171Z,8.47
2017-10-19T20:54:42.369Z,6.50
2017-10-19T20:57:08.726Z,6.83
2017-10-19T20:59:35.008Z,7.50
2017-10-19T21:02:01.215Z,6.10
2017-10-19T21:04:27.730Z,6.13
2017-10-19T21:06:54.194Z,6.37
2017-10-19T21:09:20.427Z,6.83
2017-10-19T21:11:46.667Z,6.40
2017-10-19T21:14:12.884Z,6.03
2017-10-19T21:16:39.434Z,6.90
2017-10-19T21:19:05.662Z,5.57
2017-10-19T21:21:32.096Z,6.60
2017-10-19T21:23:58.446Z,6.90
2017-10-19T21:26:24.657Z,7.00
2017-10-19T21:28:50.867Z,6.47
2017-10-19T21:31:17.133Z,6.93
2017-10-19T21:33:43.396Z,6.70
2017-10-19T21:36:09.802Z,6.70
2017-10-19T21:38:36.149Z,7.47
2017-10-19T21:41:02.347Z,7.20
2017-10-19T21:43:28.538Z,6.50
2017-10-19T21:45:55.230Z,7.50
2017-10-19T21:48:21.464Z,8.40
2017-10-19T21:50:47.673Z,6.90
2017-10-19T21:53:13.930Z,7.60
2017-10-19T21:55:40.120Z,7.50
2017-10-19T21:58:06.319Z,6.50
2017-10-19T22:00:32.848Z,6.60
2017-10-19T22:02:59.078Z,8.23
2017-10-19T22:05:25.603Z,7.33
2017-10-19T22:07:52.266Z,6.03
2017-10-19T22:10:18.534Z,6.73
2017-10-19T22:12:44.745Z,6.70
2017-10-19T22:15:11.285Z,7.00
2017-10-19T22:17:37.982Z,7.37
2017-10-19T22:20:04.211Z,7.53
2017-10-19T22:22:30.847Z,7.50
2017-10-19T22:24:57.073Z,7.13
2017-10-19T22:27:23.267Z,7.20
2017-10-19T22:29:49.597Z,7.20
2017-10-19T22:32:15.797Z,7.53
2017-10-19T22:34:42.005Z,7.27
2017-10-19T22:37:09.038Z,7.40
2017-10-19T22:39:35.233Z,7.20
2017-10-19T22:42:01.443Z,7.10
2017-10-19T22:44:27.718Z,7.10
2017-10-19T22:46:54.153Z,7.93
2017-10-19T22:49:20.380Z,6.93
2017-10-19T22:51:46.968Z,7.67
2017-10-19T22:54:13.174Z,8.53
2017-10-19T22:56:39.384Z,8.10
2017-10-19T22:59:05.730Z,6.43
2017-10-19T23:01:31.921Z,7.27
2017-10-19T23:03:58.346Z,7.20
2017-10-19T23:06:24.930Z,6.87
2017-10-19T23:08:51.137Z,7.20
2017-10-19T23:11:17.356Z,7.60
2017-10-19T23:13:43.710Z,7.10
2017-10-19T23:16:09.921Z,6.80
2017-10-19T23:18:36.568Z,7.47
2017-10-19T23:21:02.819Z,7.20
2017-10-19T23:23:29.059Z,7.10
2017-10-19T23:25:56.195Z,7.30
2017-10-19T23:28:22.394Z,7.63
2017-10-19T23:30:48.603Z,7.30
2017-10-19T23:33:15.708Z,6.83
2017-10-19T23:35:41.909Z,7.37
2017-10-19T23:38:08.116Z,7.93
2017-10-19T23:40:34.797Z,7.37
2017-10-19T23:43:01.006Z,7.87
2017-10-19T23:45:27.234Z,7.77
2017-10-19T23:47:53.502Z,7.70
2017-10-19T23:50:19.707Z,7.00
2017-10-19T23:52:45.884Z,8.57
2017-10-19T23:55:12.223Z,7.83
2017-10-19T23:57:38.660Z,8.00
